sensor_id;sensor_type;location;lat;lon;timestamp;pressure;altitude;pressure_sealevel;temperature;humidity
12626;BME280;6378;42.684;23.372;2023-07-16T00:00:42;95316.41;;;25.11;100.00
12626;BME280;6378;42.684;23.372;2023-07-16T00:03:07;95321.41;;;25.00;100.00
12626;BME280;6378;42.684;23.372;2023-07-16T00:05:34;95310.91;;;24.95;100.00
12626;BME280;6378;42.684;23.372;2023-07-16T00:08:01;95312.78;;;24.82;100.00
12626;BME280;6378;42.684;23.372;2023-07-16T00:10:26;95317.00;;;24.86;100.00
12626;BME280;6378;42.684;23.372;2023-07-16T00:12:52;95311.06;;;24.88;100.00
12626;BME280;6378;42.684;23.372;2023-07-16T00:15:17;95314.25;;;24.86;100.00
12626;BME280;6378;42.684;23.372;2023-07-16T00:17:43;95315.72;;;24.91;100.00
12626;BME280;6378;42.684;23.372;2023-07-16T00:20:08;95311.50;;;24.86;100.00
12626;BME280;6378;42.684;23.372;2023-07-16T00:22:35;95306.34;;;24.88;100.00
12626;BME280;6378;42.684;23.372;2023-07-16T00:25:00;95313.25;;;24.96;100.00
12626;BME280;6378;42.684;23.372;2023-07-16T00:27:25;95305.56;;;25.04;100.00
12626;BME280;6378;42.684;23.372;2023-07-16T00:29:51;95314.03;;;24.97;100.00
12626;BME280;6378;42.684;23.372;2023-07-16T00:32:16;95309.25;;;24.97;100.00
12626;BME280;6378;42.684;23.372;2023-07-16T00:34:42;95307.63;;;25.00;100.00
12626;BME280;6378;42.684;23.372;2023-07-16T00:37:07;95313.31;;;25.09;100.00
12626;BME280;6378;42.684;23.372;2023-07-16T00:39:32;95307.69;;;25.29;100.00
12626;BME280;6378;42.684;23.372;2023-07-16T00:41:58;95300.63;;;25.28;100.00
12626;BME280;6378;42.684;23.372;2023-07-16T00:44:23;95308.81;;;25.15;100.00
12626;BME280;6378;42.684;23.372;2023-07-16T00:46:49;95309.25;;;25.14;100.00
12626;BME280;6378;42.684;23.372;2023-07-16T00:49:15;95307.44;;;25.07;100.00
12626;BME280;6378;42.684;23.372;2023-07-16T00:51:41;95289.28;;;24.93;100.00
12626;BME280;6378;42.684;23.372;2023-07-16T00:54:08;95315.69;;;25.07;100.00
12626;BME280;6378;42.684;23.372;2023-07-16T00:56:33;95309.78;;;25.09;100.00
12626;BME280;6378;42.684;23.372;2023-07-16T00:58:59;95310.66;;;25.06;100.00
12626;BME280;6378;42.684;23.372;2023-07-16T01:01:25;95303.69;;;25.01;100.00
12626;BME280;6378;42.684;23.372;2023-07-16T01:03:51;95309.25;;;24.97;100.00
12626;BME280;6378;42.684;23.372;2023-07-16T01:06:23;95309.78;;;24.92;100.00
12626;BME280;6378;42.684;23.372;2023-07-16T01:09:15;95305.63;;;24.84;100.00
12626;BME280;6378;42.684;23.372;2023-07-16T01:11:43;95308.38;;;24.84;100.00
12626;BME280;6378;42.684;23.372;2023-07-16T01:14:09;95308.56;;;24.77;100.00
12626;BME280;6378;42.684;23.372;2023-07-16T01:16:35;95284.72;;;24.71;100.00
12626;BME280;6378;42.684;23.372;2023-07-16T01:19:01;95315.38;;;24.89;100.00
12626;BME280;6378;42.684;23.372;2023-07-16T01:21:34;95308.56;;;24.93;100.00
12626;BME280;6378;42.684;23.372;2023-07-16T01:32:05;95309.50;;;25.03;100.00
12626;BME280;6378;42.684;23.372;2023-07-16T01:34:32;95281.44;;;24.59;100.00
12626;BME280;6378;42.684;23.372;2023-07-16T01:37:02;95302.97;;;24.65;100.00
12626;BME280;6378;42.684;23.372;2023-07-16T01:39:29;95305.56;;;24.72;100.00
12626;BME280;6378;42.684;23.372;2023-07-16T01:41:55;95308.97;;;24.59;100.00
12626;BME280;6378;42.684;23.372;2023-07-16T01:44:21;95309.84;;;24.56;100.00
12626;BME280;6378;42.684;23.372;2023-07-16T01:47:10;95314.72;;;24.49;100.00
12626;BME280;6378;42.684;23.372;2023-07-16T01:49:38;95318.69;;;24.48;100.00
12626;BME280;6378;42.684;23.372;2023-07-16T01:52:04;95317.41;;;24.52;100.00
12626;BME280;6378;42.684;23.372;2023-07-16T01:54:30;95323.75;;;24.33;100.00
12626;BME280;6378;42.684;23.372;2023-07-16T01:56:56;95294.00;;;24.28;100.00
12626;BME280;6378;42.684;23.372;2023-07-16T01:59:21;95316.59;;;24.36;100.00
12626;BME280;6378;42.684;23.372;2023-07-16T02:01:46;95315.81;;;24.35;100.00
12626;BME280;6378;42.684;23.372;2023-07-16T02:04:12;95300.38;;;24.41;100.00
12626;BME280;6378;42.684;23.372;2023-07-16T02:06:37;95317.59;;;24.26;100.00
12626;BME280;6378;42.684;23.372;2023-07-16T02:09:03;95307.47;;;24.23;100.00
12626;BME280;6378;42.684;23.372;2023-07-16T02:11:28;95311.19;;;24.32;100.00
12626;BME280;6378;42.684;23.372;2023-07-16T02:13:54;95309.13;;;24.36;100.00
12626;BME280;6378;42.684;23.372;2023-07-16T02:16:19;95310.31;;;24.35;100.00
12626;BME280;6378;42.684;23.372;2023-07-16T02:18:45;95311.00;;;24.23;100.00
12626;BME280;6378;42.684;23.372;2023-07-16T02:21:10;95309.16;;;24.16;100.00
12626;BME280;6378;42.684;23.372;2023-07-16T02:23:35;95316.56;;;24.20;100.00
12626;BME280;6378;42.684;23.372;2023-07-16T02:26:01;95317.09;;;24.31;100.00
12626;BME280;6378;42.684;23.372;2023-07-16T02:28:26;95311.63;;;24.11;100.00
12626;BME280;6378;42.684;23.372;2023-07-16T02:30:52;95309.53;;;23.99;100.00
12626;BME280;6378;42.684;23.372;2023-07-16T02:33:17;95311.06;;;23.80;100.00
12626;BME280;6378;42.684;23.372;2023-07-16T02:35:46;95319.13;;;23.71;100.00
12626;BME280;6378;42.684;23.372;2023-07-16T02:38:12;95318.81;;;23.85;100.00
12626;BME280;6378;42.684;23.372;2023-07-16T02:40:46;95313.56;;;23.94;100.00
12626;BME280;6378;42.684;23.372;2023-07-16T02:43:12;95312.13;;;23.86;100.00
12626;BME280;6378;42.684;23.372;2023-07-16T02:45:37;95315.72;;;24.03;100.00
12626;BME280;6378;42.684;23.372;2023-07-16T02:48:04;95318.66;;;24.12;100.00
12626;BME280;6378;42.684;23.372;2023-07-16T02:50:29;95312.47;;;24.28;100.00
12626;BME280;6378;42.684;23.372;2023-07-16T02:52:55;95314.47;;;24.43;100.00
12626;BME280;6378;42.684;23.372;2023-07-16T02:55:20;95305.19;;;24.53;100.00
12626;BME280;6378;42.684;23.372;2023-07-16T02:57:46;95308.28;;;24.55;100.00
12626;BME280;6378;42.684;23.372;2023-07-16T03:00:11;95312.78;;;24.66;100.00
12626;BME280;6378;42.684;23.372;2023-07-16T03:02:37;95305.72;;;24.81;100.00
12626;BME280;6378;42.684;23.372;2023-07-16T03:05:02;95332.47;;;24.80;100.00
12626;BME280;6378;42.684;23.372;2023-07-16T03:07:28;95321.19;;;24.75;100.00
12626;BME280;6378;42.684;23.372;2023-07-16T03:09:53;95321.56;;;24.77;100.00
12626;BME280;6378;42.684;23.372;2023-07-16T03:12:19;95298.47;;;24.38;100.00
12626;BME280;6378;42.684;23.372;2023-07-16T03:14:44;95327.91;;;24.57;100.00
12626;BME280;6378;42.684;23.372;2023-07-16T03:17:10;95328.50;;;24.65;100.00
12626;BME280;6378;42.684;23.372;2023-07-16T03:19:35;95313.75;;;24.39;100.00
12626;BME280;6378;42.684;23.372;2023-07-16T03:22:00;95331.00;;;24.43;100.00
12626;BME280;6378;42.684;23.372;2023-07-16T03:24:26;95312.78;;;23.94;100.00
12626;BME280;6378;42.684;23.372;2023-07-16T03:26:51;95327.34;;;23.91;100.00
12626;BME280;6378;42.684;23.372;2023-07-16T03:29:16;95341.09;;;24.10;100.00
12626;BME280;6378;42.684;23.372;2023-07-16T03:31:42;95326.00;;;24.38;100.00
12626;BME280;6378;42.684;23.372;2023-07-16T03:34:07;95341.34;;;24.72;100.00
12626;BME280;6378;42.684;23.372;2023-07-16T03:36:33;95342.91;;;25.21;100.00
12626;BME280;6378;42.684;23.372;2023-07-16T03:38:58;95337.75;;;25.68;100.00
12626;BME280;6378;42.684;23.372;2023-07-16T03:41:24;95336.97;;;25.97;100.00
12626;BME280;6378;42.684;23.372;2023-07-16T03:43:49;95328.41;;;26.20;100.00
12626;BME280;6378;42.684;23.372;2023-07-16T03:46:14;95334.44;;;26.56;100.00
12626;BME280;6378;42.684;23.372;2023-07-16T03:48:40;95340.84;;;26.91;100.00
12626;BME280;6378;42.684;23.372;2023-07-16T03:51:05;95344.47;;;27.13;100.00
12626;BME280;6378;42.684;23.372;2023-07-16T03:53:31;95346.56;;;27.69;100.00
12626;BME280;6378;42.684;23.372;2023-07-16T03:55:56;95337.84;;;28.14;100.00
12626;BME280;6378;42.684;23.372;2023-07-16T03:58:21;95341.34;;;28.36;100.00
12626;BME280;6378;42.684;23.372;2023-07-16T04:00:48;95342.03;;;28.50;100.00
12626;BME280;6378;42.684;23.372;2023-07-16T04:03:13;95343.47;;;29.03;100.00
12626;BME280;6378;42.684;23.372;2023-07-16T04:05:38;95347.56;;;29.20;100.00
12626;BME280;6378;42.684;23.372;2023-07-16T04:08:04;95347.56;;;29.20;100.00
12626;BME280;6378;42.684;23.372;2023-07-16T04:10:29;95349.53;;;29.11;100.00
12626;BME280;6378;42.684;23.372;2023-07-16T04:12:55;95336.38;;;29.51;100.00
12626;BME280;6378;42.684;23.372;2023-07-16T04:15:20;95346.22;;;29.43;98.93
12626;BME280;6378;42.684;23.372;2023-07-16T04:17:45;95346.84;;;29.47;99.61
12626;BME280;6378;42.684;23.372;2023-07-16T04:20:11;95349.91;;;29.31;99.33
12626;BME280;6378;42.684;23.372;2023-07-16T04:22:36;95339.88;;;28.84;100.00
12626;BME280;6378;42.684;23.372;2023-07-16T04:25:02;95358.22;;;28.82;100.00
12626;BME280;6378;42.684;23.372;2023-07-16T04:27:29;95360.06;;;29.34;100.00
12626;BME280;6378;42.684;23.372;2023-07-16T04:29:54;95367.09;;;29.93;96.97
12626;BME280;6378;42.684;23.372;2023-07-16T04:32:19;95371.06;;;30.47;92.36
12626;BME280;6378;42.684;23.372;2023-07-16T04:34:45;95366.34;;;30.71;90.04
12626;BME280;6378;42.684;23.372;2023-07-16T04:37:10;95372.41;;;31.12;85.05
12626;BME280;6378;42.684;23.372;2023-07-16T04:39:36;95370.22;;;30.65;87.49
12626;BME280;6378;42.684;23.372;2023-07-16T04:42:01;95364.66;;;30.74;88.16
12626;BME280;6378;42.684;23.372;2023-07-16T04:44:26;95366.00;;;30.87;86.68
12626;BME280;6378;42.684;23.372;2023-07-16T04:46:52;95367.97;;;30.96;85.78
12626;BME280;6378;42.684;23.372;2023-07-16T04:49:17;95370.16;;;31.25;84.17
12626;BME280;6378;42.684;23.372;2023-07-16T04:51:42;95343.28;;;31.46;80.25
12626;BME280;6378;42.684;23.372;2023-07-16T04:54:08;95378.00;;;31.59;78.65
12626;BME280;6378;42.684;23.372;2023-07-16T04:56:34;95355.53;;;31.87;76.05
12626;BME280;6378;42.684;23.372;2023-07-16T04:58:59;95379.31;;;32.11;73.71
12626;BME280;6378;42.684;23.372;2023-07-16T05:01:25;95371.66;;;31.82;76.61
12626;BME280;6378;42.684;23.372;2023-07-16T05:03:52;95366.97;;;31.89;75.64
12626;BME280;6378;42.684;23.372;2023-07-16T05:06:17;95379.31;;;31.73;77.85
12626;BME280;6378;42.684;23.372;2023-07-16T05:08:42;95384.41;;;31.74;75.25
12626;BME280;6378;42.684;23.372;2023-07-16T05:11:08;95366.91;;;31.50;75.95
12626;BME280;6378;42.684;23.372;2023-07-16T05:13:33;95384.03;;;31.58;77.33
12626;BME280;6378;42.684;23.372;2023-07-16T05:15:59;95365.38;;;31.49;79.84
12626;BME280;6378;42.684;23.372;2023-07-16T05:18:24;95388.41;;;31.50;80.00
12626;BME280;6378;42.684;23.372;2023-07-16T05:20:50;95352.53;;;31.52;78.19
12626;BME280;6378;42.684;23.372;2023-07-16T05:23:15;95377.72;;;31.57;78.34
12626;BME280;6378;42.684;23.372;2023-07-16T05:25:49;95380.50;;;31.24;79.99
12626;BME280;6378;42.684;23.372;2023-07-16T05:28:18;95384.81;;;31.58;77.51
12626;BME280;6378;42.684;23.372;2023-07-16T05:30:44;95376.59;;;31.64;76.48
12626;BME280;6378;42.684;23.372;2023-07-16T05:33:12;95399.66;;;31.31;80.28
12626;BME280;6378;42.684;23.372;2023-07-16T05:35:39;95387.91;;;31.60;77.72
12626;BME280;6378;42.684;23.372;2023-07-16T05:38:04;95388.00;;;31.42;79.55
12626;BME280;6378;42.684;23.372;2023-07-16T05:40:30;95385.19;;;31.75;78.30
12626;BME280;6378;42.684;23.372;2023-07-16T05:42:55;95386.94;;;31.87;78.18
12626;BME280;6378;42.684;23.372;2023-07-16T05:45:21;95383.72;;;32.03;76.65
12626;BME280;6378;42.684;23.372;2023-07-16T05:47:46;95384.16;;;32.25;76.38
12626;BME280;6378;42.684;23.372;2023-07-16T05:50:11;95393.28;;;32.26;73.29
12626;BME280;6378;42.684;23.372;2023-07-16T05:52:37;95396.88;;;32.03;74.88
12626;BME280;6378;42.684;23.372;2023-07-16T05:55:02;95391.25;;;31.88;75.90
12626;BME280;6378;42.684;23.372;2023-07-16T05:57:28;95403.22;;;32.03;75.09
12626;BME280;6378;42.684;23.372;2023-07-16T05:59:53;95395.88;;;31.67;76.28
12626;BME280;6378;42.684;23.372;2023-07-16T06:02:19;95394.00;;;31.73;76.96
12626;BME280;6378;42.684;23.372;2023-07-16T06:04:44;95389.09;;;31.12;81.24
12626;BME280;6378;42.684;23.372;2023-07-16T06:07:09;95397.41;;;31.45;77.92
12626;BME280;6378;42.684;23.372;2023-07-16T06:09:35;95398.97;;;31.13;81.18
12626;BME280;6378;42.684;23.372;2023-07-16T06:12:00;95393.50;;;32.37;75.00
12626;BME280;6378;42.684;23.372;2023-07-16T06:14:26;95395.47;;;32.22;73.35
12626;BME280;6378;42.684;23.372;2023-07-16T06:16:51;95397.31;;;30.97;82.58
12626;BME280;6378;42.684;23.372;2023-07-16T06:19:17;95401.34;;;31.29;80.70
12626;BME280;6378;42.684;23.372;2023-07-16T06:21:43;95399.63;;;30.89;82.03
12626;BME280;6378;42.684;23.372;2023-07-16T06:24:08;95403.34;;;31.28;79.34
12626;BME280;6378;42.684;23.372;2023-07-16T06:26:34;95388.13;;;30.73;81.19
12626;BME280;6378;42.684;23.372;2023-07-16T06:28:59;95395.66;;;30.81;83.41
12626;BME280;6378;42.684;23.372;2023-07-16T06:31:25;95392.06;;;30.90;82.90
12626;BME280;6378;42.684;23.372;2023-07-16T06:33:50;95389.84;;;30.61;84.84
12626;BME280;6378;42.684;23.372;2023-07-16T06:36:16;95392.75;;;30.76;83.60
12626;BME280;6378;42.684;23.372;2023-07-16T06:38:41;95394.53;;;31.30;81.14
12626;BME280;6378;42.684;23.372;2023-07-16T06:41:07;95368.16;;;31.49;78.21
12626;BME280;6378;42.684;23.372;2023-07-16T06:43:32;95382.53;;;31.48;78.34
12626;BME280;6378;42.684;23.372;2023-07-16T06:45:57;95391.53;;;31.42;76.06
12626;BME280;6378;42.684;23.372;2023-07-16T06:48:23;95393.38;;;31.46;75.93
12626;BME280;6378;42.684;23.372;2023-07-16T06:50:51;95364.69;;;31.63;70.78
12626;BME280;6378;42.684;23.372;2023-07-16T06:53:17;95383.56;;;31.03;76.86
12626;BME280;6378;42.684;23.372;2023-07-16T06:55:42;95388.47;;;30.98;79.31
12626;BME280;6378;42.684;23.372;2023-07-16T06:58:13;95372.13;;;30.59;80.59
12626;BME280;6378;42.684;23.372;2023-07-16T07:00:40;95382.44;;;31.42;74.10
12626;BME280;6378;42.684;23.372;2023-07-16T07:03:05;95376.28;;;30.63;81.55
12626;BME280;6378;42.684;23.372;2023-07-16T07:05:30;95367.16;;;30.63;83.97
12626;BME280;6378;42.684;23.372;2023-07-16T07:07:56;95376.94;;;29.76;91.25
12626;BME280;6378;42.684;23.372;2023-07-16T07:10:21;95352.09;;;30.18;88.22
12626;BME280;6378;42.684;23.372;2023-07-16T07:12:47;95381.03;;;30.72;83.11
12626;BME280;6378;42.684;23.372;2023-07-16T07:15:13;95379.53;;;30.52;83.93
12626;BME280;6378;42.684;23.372;2023-07-16T07:17:39;95371.94;;;30.62;83.04
12626;BME280;6378;42.684;23.372;2023-07-16T07:20:05;95383.09;;;30.95;82.50
12626;BME280;6378;42.684;23.372;2023-07-16T07:22:32;95371.81;;;30.38;83.22
12626;BME280;6378;42.684;23.372;2023-07-16T07:24:57;95371.16;;;30.62;83.86
12626;BME280;6378;42.684;23.372;2023-07-16T07:27:23;95366.41;;;30.95;80.48
12626;BME280;6378;42.684;23.372;2023-07-16T07:29:48;95379.84;;;30.96;81.72
12626;BME280;6378;42.684;23.372;2023-07-16T07:32:18;95374.72;;;31.04;82.61
12626;BME280;6378;42.684;23.372;2023-07-16T07:34:44;95373.97;;;31.36;82.04
12626;BME280;6378;42.684;23.372;2023-07-16T07:37:09;95381.22;;;31.34;78.71
12626;BME280;6378;42.684;23.372;2023-07-16T07:39:34;95383.97;;;31.10;79.18
12626;BME280;6378;42.684;23.372;2023-07-16T07:42:00;95378.69;;;31.45;76.44
12626;BME280;6378;42.684;23.372;2023-07-16T07:44:25;95372.72;;;31.85;72.17
12626;BME280;6378;42.684;23.372;2023-07-16T07:46:50;95383.31;;;32.34;68.19
12626;BME280;6378;42.684;23.372;2023-07-16T07:49:16;95371.78;;;32.03;72.39
12626;BME280;6378;42.684;23.372;2023-07-16T07:51:41;95359.28;;;31.83;73.06
12626;BME280;6378;42.684;23.372;2023-07-16T07:54:06;95375.00;;;31.15;77.17
12626;BME280;6378;42.684;23.372;2023-07-16T07:56:32;95376.81;;;31.18;78.34
12626;BME280;6378;42.684;23.372;2023-07-16T07:58:57;95384.50;;;31.32;77.14
12626;BME280;6378;42.684;23.372;2023-07-16T08:01:23;95366.28;;;31.79;74.89
12626;BME280;6378;42.684;23.372;2023-07-16T08:03:48;95376.69;;;31.93;72.40
12626;BME280;6378;42.684;23.372;2023-07-16T08:06:13;95367.53;;;32.16;70.70
12626;BME280;6378;42.684;23.372;2023-07-16T08:08:39;95360.50;;;32.21;72.44
12626;BME280;6378;42.684;23.372;2023-07-16T08:11:04;95348.03;;;32.16;69.71
12626;BME280;6378;42.684;23.372;2023-07-16T08:13:30;95360.44;;;32.15;72.72
12626;BME280;6378;42.684;23.372;2023-07-16T08:15:55;95372.84;;;31.91;73.74
12626;BME280;6378;42.684;23.372;2023-07-16T08:18:20;95371.84;;;31.79;79.27
12626;BME280;6378;42.684;23.372;2023-07-16T08:20:46;95367.16;;;32.38;74.93
12626;BME280;6378;42.684;23.372;2023-07-16T08:23:12;95376.53;;;32.64;69.22
12626;BME280;6378;42.684;23.372;2023-07-16T08:25:38;95371.78;;;32.85;69.91
12626;BME280;6378;42.684;23.372;2023-07-16T08:28:03;95367.06;;;32.62;67.17
12626;BME280;6378;42.684;23.372;2023-07-16T08:30:29;95361.03;;;32.34;73.95
12626;BME280;6378;42.684;23.372;2023-07-16T08:32:54;95370.63;;;32.33;72.92
12626;BME280;6378;42.684;23.372;2023-07-16T08:35:20;95365.06;;;32.92;69.77
12626;BME280;6378;42.684;23.372;2023-07-16T08:37:45;95380.22;;;33.05;66.89
12626;BME280;6378;42.684;23.372;2023-07-16T08:40:12;95369.66;;;32.80;66.25
12626;BME280;6378;42.684;23.372;2023-07-16T08:42:44;95362.09;;;32.66;68.27
12626;BME280;6378;42.684;23.372;2023-07-16T08:45:10;95371.66;;;32.36;72.11
12626;BME280;6378;42.684;23.372;2023-07-16T08:47:36;95371.19;;;32.52;69.39
12626;BME280;6378;42.684;23.372;2023-07-16T08:50:03;95353.78;;;33.01;67.64
12626;BME280;6378;42.684;23.372;2023-07-16T08:52:30;95340.94;;;33.24;66.80
12626;BME280;6378;42.684;23.372;2023-07-16T08:54:56;95357.69;;;32.74;68.77
12626;BME280;6378;42.684;23.372;2023-07-16T08:57:21;95353.66;;;33.10;66.40
12626;BME280;6378;42.684;23.372;2023-07-16T08:59:51;95358.88;;;32.14;73.82
12626;BME280;6378;42.684;23.372;2023-07-16T09:02:20;95372.78;;;32.67;69.15
12626;BME280;6378;42.684;23.372;2023-07-16T09:04:49;95354.94;;;32.21;75.89
12626;BME280;6378;42.684;23.372;2023-07-16T09:07:18;95351.13;;;31.80;78.53
12626;BME280;6378;42.684;23.372;2023-07-16T09:09:54;95349.00;;;32.43;75.29
12626;BME280;6378;42.684;23.372;2023-07-16T09:12:23;95352.84;;;32.75;76.15
12626;BME280;6378;42.684;23.372;2023-07-16T09:14:49;95354.78;;;32.54;72.58
12626;BME280;6378;42.684;23.372;2023-07-16T09:17:20;95340.53;;;32.81;71.83
12626;BME280;6378;42.684;23.372;2023-07-16T09:19:46;95337.75;;;32.81;68.74
12626;BME280;6378;42.684;23.372;2023-07-16T09:22:11;95342.31;;;32.99;68.18
12626;BME280;6378;42.684;23.372;2023-07-16T09:24:36;95338.47;;;33.11;68.78
12626;BME280;6378;42.684;23.372;2023-07-16T09:27:02;95341.78;;;32.36;74.47
12626;BME280;6378;42.684;23.372;2023-07-16T09:29:27;95341.50;;;32.19;73.93
12626;BME280;6378;42.684;23.372;2023-07-16T09:31:57;95341.41;;;32.29;75.38
12626;BME280;6378;42.684;23.372;2023-07-16T09:34:23;95339.69;;;32.75;75.47
12626;BME280;6378;42.684;23.372;2023-07-16T09:36:49;95334.78;;;33.20;71.69
12626;BME280;6378;42.684;23.372;2023-07-16T09:39:18;95340.09;;;33.73;70.30
12626;BME280;6378;42.684;23.372;2023-07-16T09:41:48;95338.72;;;33.28;69.05
12626;BME280;6378;42.684;23.372;2023-07-16T09:44:14;95330.97;;;33.17;71.44
12626;BME280;6378;42.684;23.372;2023-07-16T09:46:40;95334.50;;;33.53;69.24
12626;BME280;6378;42.684;23.372;2023-07-16T09:49:06;95271.56;;;32.96;69.91
12626;BME280;6378;42.684;23.372;2023-07-16T09:51:37;95326.50;;;33.25;72.10
12626;BME280;6378;42.684;23.372;2023-07-16T09:54:04;95321.13;;;32.72;75.23
12626;BME280;6378;42.684;23.372;2023-07-16T09:56:51;95327.59;;;32.49;75.12
12626;BME280;6378;42.684;23.372;2023-07-16T09:59:21;95324.00;;;32.63;75.83
12626;BME280;6378;42.684;23.372;2023-07-16T10:01:48;95317.47;;;32.37;78.33
12626;BME280;6378;42.684;23.372;2023-07-16T10:04:19;95317.59;;;32.42;78.76
12626;BME280;6378;42.684;23.372;2023-07-16T10:06:51;95308.63;;;32.82;73.88
12626;BME280;6378;42.684;23.372;2023-07-16T10:09:42;95311.53;;;33.23;71.85
12626;BME280;6378;42.684;23.372;2023-07-16T10:12:16;95312.78;;;33.22;67.39
12626;BME280;6378;42.684;23.372;2023-07-16T10:19:47;95311.59;;;33.89;65.34
12626;BME280;6378;42.684;23.372;2023-07-16T10:22:13;95292.41;;;33.36;66.71
12626;BME280;6378;42.684;23.372;2023-07-16T10:24:39;95310.25;;;33.64;64.60
12626;BME280;6378;42.684;23.372;2023-07-16T10:27:05;95314.38;;;33.14;66.85
12626;BME280;6378;42.684;23.372;2023-07-16T10:29:30;95289.31;;;33.34;66.70
12626;BME280;6378;42.684;23.372;2023-07-16T10:31:57;95297.72;;;33.74;64.17
12626;BME280;6378;42.684;23.372;2023-07-16T10:34:23;95294.19;;;33.19;67.84
12626;BME280;6378;42.684;23.372;2023-07-16T10:36:50;95297.06;;;32.89;71.98
12626;BME280;6378;42.684;23.372;2023-07-16T10:39:15;95296.44;;;32.50;74.40
12626;BME280;6378;42.684;23.372;2023-07-16T10:41:41;95282.03;;;32.66;73.55
12626;BME280;6378;42.684;23.372;2023-07-16T10:44:13;95267.09;;;32.55;74.10
12626;BME280;6378;42.684;23.372;2023-07-16T10:46:42;95294.22;;;32.84;76.23
12626;BME280;6378;42.684;23.372;2023-07-16T10:49:07;95292.09;;;32.79;72.22
12626;BME280;6378;42.684;23.372;2023-07-16T10:51:33;95285.84;;;33.04;71.25
12626;BME280;6378;42.684;23.372;2023-07-16T10:54:01;95279.72;;;32.36;75.88
12626;BME280;6378;42.684;23.372;2023-07-16T10:56:34;95281.22;;;32.81;69.91
12626;BME280;6378;42.684;23.372;2023-07-16T10:59:00;95289.19;;;33.23;66.65
12626;BME280;6378;42.684;23.372;2023-07-16T11:01:28;95283.03;;;33.19;68.08
12626;BME280;6378;42.684;23.372;2023-07-16T11:04:07;95282.84;;;33.42;62.18
12626;BME280;6378;42.684;23.372;2023-07-16T11:06:33;95269.38;;;33.61;61.49
12626;BME280;6378;42.684;23.372;2023-07-16T11:09:08;95276.88;;;33.96;62.27
12626;BME280;6378;42.684;23.372;2023-07-16T11:11:34;95280.53;;;34.07;59.96
12626;BME280;6378;42.684;23.372;2023-07-16T11:13:59;95272.22;;;34.13;60.90
12626;BME280;6378;42.684;23.372;2023-07-16T11:16:25;95274.59;;;34.20;58.19
12626;BME280;6378;42.684;23.372;2023-07-16T11:18:51;95270.19;;;34.13;56.58
12626;BME280;6378;42.684;23.372;2023-07-16T11:21:18;95271.50;;;33.92;55.42
12626;BME280;6378;42.684;23.372;2023-07-16T11:23:44;95268.97;;;33.68;55.14
12626;BME280;6378;42.684;23.372;2023-07-16T11:26:10;95280.09;;;33.88;53.44
12626;BME280;6378;42.684;23.372;2023-07-16T11:28:39;95265.53;;;33.59;55.99
12626;BME280;6378;42.684;23.372;2023-07-16T11:31:16;95264.16;;;33.69;55.13
12626;BME280;6378;42.684;23.372;2023-07-16T11:33:48;95269.72;;;33.69;56.55
12626;BME280;6378;42.684;23.372;2023-07-16T11:36:13;95251.31;;;33.57;56.59
12626;BME280;6378;42.684;23.372;2023-07-16T11:38:39;95249.59;;;33.85;52.35
12626;BME280;6378;42.684;23.372;2023-07-16T11:41:08;95261.63;;;33.97;54.47
12626;BME280;6378;42.684;23.372;2023-07-16T11:43:34;95260.00;;;34.10;49.43
12626;BME280;6378;42.684;23.372;2023-07-16T11:46:05;95262.97;;;34.27;51.98
12626;BME280;6378;42.684;23.372;2023-07-16T11:48:30;95247.91;;;34.82;50.53
12626;BME280;6378;42.684;23.372;2023-07-16T11:50:56;95250.69;;;34.82;48.00
12626;BME280;6378;42.684;23.372;2023-07-16T11:53:21;95251.59;;;35.04;49.46
12626;BME280;6378;42.684;23.372;2023-07-16T11:55:47;95253.09;;;35.42;46.49
12626;BME280;6378;42.684;23.372;2023-07-16T11:58:12;95240.34;;;35.41;47.81
12626;BME280;6378;42.684;23.372;2023-07-16T12:00:37;95244.53;;;35.74;46.13
12626;BME280;6378;42.684;23.372;2023-07-16T12:03:03;95246.38;;;36.04;44.96
12626;BME280;6378;42.684;23.372;2023-07-16T12:05:28;95239.53;;;36.11;43.29
12626;BME280;6378;42.684;23.372;2023-07-16T12:07:54;95221.88;;;35.83;45.17
12626;BME280;6378;42.684;23.372;2023-07-16T12:10:20;95237.72;;;36.02;42.82
12626;BME280;6378;42.684;23.372;2023-07-16T12:12:45;95237.44;;;35.84;45.36
12626;BME280;6378;42.684;23.372;2023-07-16T12:15:11;95237.97;;;35.82;44.29
12626;BME280;6378;42.684;23.372;2023-07-16T12:17:37;95235.66;;;35.86;42.77
12626;BME280;6378;42.684;23.372;2023-07-16T12:20:03;95236.34;;;35.64;43.23
12626;BME280;6378;42.684;23.372;2023-07-16T12:22:29;95237.41;;;35.13;43.08
12626;BME280;6378;42.684;23.372;2023-07-16T12:24:55;95236.94;;;35.20;42.30
12626;BME280;6378;42.684;23.372;2023-07-16T12:27:20;95223.03;;;34.89;45.12
12626;BME280;6378;42.684;23.372;2023-07-16T12:29:46;95219.34;;;34.72;43.77
12626;BME280;6378;42.684;23.372;2023-07-16T12:32:13;95233.91;;;34.45;45.13
12626;BME280;6378;42.684;23.372;2023-07-16T12:34:39;95207.59;;;34.31;44.45
12626;BME280;6378;42.684;23.372;2023-07-16T12:37:04;95226.66;;;34.01;45.17
12626;BME280;6378;42.684;23.372;2023-07-16T12:39:30;95218.34;;;34.12;43.77
12626;BME280;6378;42.684;23.372;2023-07-16T12:41:56;95218.59;;;34.09;44.67
12626;BME280;6378;42.684;23.372;2023-07-16T12:44:21;95229.75;;;34.09;42.14
12626;BME280;6378;42.684;23.372;2023-07-16T12:46:46;95195.34;;;33.91;42.55
12626;BME280;6378;42.684;23.372;2023-07-16T12:49:12;95219.31;;;34.04;42.99
12626;BME280;6378;42.684;23.372;2023-07-16T12:51:38;95211.78;;;34.15;44.74
12626;BME280;6378;42.684;23.372;2023-07-16T12:54:03;95211.88;;;34.26;44.00
12626;BME280;6378;42.684;23.372;2023-07-16T12:56:28;95211.22;;;34.37;44.22
12626;BME280;6378;42.684;23.372;2023-07-16T12:58:56;95211.31;;;34.48;41.13
12626;BME280;6378;42.684;23.372;2023-07-16T13:01:21;95201.22;;;34.25;41.17
12626;BME280;6378;42.684;23.372;2023-07-16T13:03:46;95208.66;;;34.08;41.39
12626;BME280;6378;42.684;23.372;2023-07-16T13:06:12;95205.69;;;34.17;41.69